createdAt,value
2022-11-25T00:01:34.252Z,97546.19
2022-11-25T00:04:04.286Z,97539.88
2022-11-25T00:06:34.786Z,97537.13
2022-11-25T00:09:06.288Z,97541.03
2022-11-25T00:11:36.506Z,97533.56
2022-11-25T00:14:05.307Z,97539.88
2022-11-25T00:16:33.816Z,97535.16
2022-11-25T00:19:03.926Z,97538.25
2022-11-25T00:21:34.890Z,97539.06
2022-11-25T00:24:05.928Z,97548.16
2022-11-25T00:26:36.168Z,97550.09
2022-11-25T00:29:07.899Z,97542.66
2022-11-25T00:31:39.911Z,97552.03
2022-11-25T00:34:13.294Z,97556.75
2022-11-25T00:36:41.980Z,97558.69
2022-11-25T00:39:13.095Z,97560.63
2022-11-25T00:41:59.588Z,97557.06
2022-11-25T00:44:38.168Z,97557.06
2022-11-25T00:47:10.580Z,97561.44
2022-11-25T00:49:42.039Z,97565.34
2022-11-25T00:52:14.056Z,97564.84
2022-11-25T00:54:42.719Z,97565.34
2022-11-25T00:57:11.186Z,97564.19
2022-11-25T00:59:40.228Z,97564.19
2022-11-25T01:02:09.226Z,97568.09
2022-11-25T01:04:38.380Z,97566.47
2022-11-25T01:07:08.647Z,97571.97
2022-11-25T01:09:37.516Z,97579.13
2022-11-25T01:12:06.791Z,97584.63
2022-11-25T01:14:36.366Z,97576.69
2022-11-25T01:17:05.273Z,97577.50
2022-11-25T01:19:35.013Z,97578.63
2022-11-25T01:22:03.881Z,97579.44
2022-11-25T01:24:34.438Z,97582.19
2022-11-25T01:27:03.122Z,97578.63
2022-11-25T01:29:31.722Z,97579.44
2022-11-25T01:32:00.319Z,97586.88
2022-11-25T01:34:31.953Z,97592.41
2022-11-25T01:37:00.461Z,97588.03
2022-11-25T01:39:32.893Z,97587.19
2022-11-25T01:42:03.607Z,97596.28
2022-11-25T01:44:34.146Z,97595.47
2022-11-25T01:47:11.447Z,97589.16
2022-11-25T01:49:44.795Z,97589.97
2022-11-25T01:52:19.824Z,97589.16
2022-11-25T01:54:54.412Z,97588.34
2022-11-25T01:57:27.551Z,97584.44
2022-11-25T02:00:00.383Z,97588.34
2022-11-25T02:02:30.187Z,97576.50
2022-11-25T02:05:01.269Z,97574.56
2022-11-25T02:07:36.266Z,97572.94
2022-11-25T02:10:09.565Z,97569.34
2022-11-25T02:12:42.378Z,97563.84
2022-11-25T02:15:11.907Z,97563.84
2022-11-25T02:17:40.555Z,97563.03
2022-11-25T02:20:11.406Z,97562.22
2022-11-25T02:22:52.984Z,97563.84
2022-11-25T02:25:25.326Z,97560.28
2022-11-25T02:27:58.753Z,97558.34
2022-11-25T02:30:27.319Z,97558.34
2022-11-25T02:32:55.920Z,97558.34
2022-11-25T02:35:33.324Z,97548.94
2022-11-25T02:38:07.103Z,97539.84
2022-11-25T02:40:41.743Z,97536.59
2022-11-25T02:43:10.838Z,97533.53
2022-11-25T02:45:54.087Z,97529.16
2022-11-25T02:48:39.683Z,97529.16
2022-11-25T02:51:13.479Z,97530.78
2022-11-25T02:53:42.862Z,97523.63
2022-11-25T02:56:14.954Z,97513.41
2022-11-25T02:58:44.074Z,97518.13
2022-11-25T03:01:12.843Z,97524.75
2022-11-25T03:03:41.675Z,97521.69
2022-11-25T03:06:10.317Z,97528.34
2022-11-25T03:08:39.700Z,97527.19
2022-11-25T03:11:11.170Z,97522.50
2022-11-25T03:13:41.769Z,97518.44
2022-11-25T03:16:11.184Z,97512.63
2022-11-25T03:18:39.905Z,97515.38
2022-11-25T03:21:08.401Z,97518.13
2022-11-25T03:23:36.966Z,97519.25
2022-11-25T03:26:06.968Z,97519.25
2022-11-25T03:28:35.779Z,97519.25
2022-11-25T03:31:05.652Z,97522.00
2022-11-25T03:33:34.390Z,97522.00
2022-11-25T03:36:02.939Z,97520.38
2022-11-25T03:38:31.410Z,97520.38
2022-11-25T03:40:59.981Z,97522.81
2022-11-25T03:43:28.975Z,97522.00
2022-11-25T03:45:58.156Z,97525.91
2022-11-25T03:48:27.943Z,97520.38
2022-11-25T03:50:56.810Z,97534.16
2022-11-25T03:53:27.178Z,97526.72
2022-11-25T03:55:55.702Z,97525.91
2022-11-25T03:58:26.866Z,97518.75
2022-11-25T04:00:56.307Z,97517.94
2022-11-25T04:03:24.812Z,97518.75
2022-11-25T04:05:54.830Z,97522.66
2022-11-25T04:08:24.375Z,97523.47
2022-11-25T04:10:52.982Z,97516.00
2022-11-25T04:13:24.904Z,97517.94
2022-11-25T04:15:54.279Z,97514.38
2022-11-25T04:18:23.214Z,97511.63
2022-11-25T04:20:58.092Z,97513.25
2022-11-25T04:23:26.994Z,97509.69
2022-11-25T04:26:02.855Z,97513.25
2022-11-25T04:28:36.458Z,97520.69
2022-11-25T04:31:07.765Z,97511.63
2022-11-25T04:33:39.402Z,97514.38
2022-11-25T04:36:11.084Z,97526.53
2022-11-25T04:38:39.714Z,97522.66
2022-11-25T04:41:09.793Z,97528.16
2022-11-25T04:43:42.146Z,97530.91
2022-11-25T04:46:17.884Z,97537.56
2022-11-25T04:48:50.175Z,97536.44
2022-11-25T04:51:20.168Z,97533.66
2022-11-25T04:53:52.299Z,97533.66
2022-11-25T04:56:21.810Z,97532.84
2022-11-25T04:59:10.572Z,97538.06
2022-11-25T05:01:42.771Z,97540.81
2022-11-25T05:04:34.090Z,97540.00
2022-11-25T05:07:04.174Z,97535.28
2022-11-25T05:09:32.751Z,97527.03
2022-11-25T05:12:25.000Z,97521.50
2022-11-25T05:14:54.504Z,97518.75
2022-11-25T05:17:29.549Z,97522.66
2022-11-25T05:19:58.116Z,97518.75
2022-11-25T05:22:30.130Z,97522.66
2022-11-25T05:24:58.973Z,97524.28
2022-11-25T05:27:28.215Z,97527.03
2022-11-25T05:29:59.559Z,97528.16
2022-11-25T05:32:28.054Z,97528.97
2022-11-25T05:34:59.747Z,97527.03
2022-11-25T05:37:29.530Z,97528.16
2022-11-25T05:40:05.307Z,97532.53
2022-11-25T05:42:57.584Z,97543.88
2022-11-25T05:45:26.086Z,97549.06
2022-11-25T05:47:56.278Z,97554.59
2022-11-25T05:50:27.587Z,97555.72
2022-11-25T05:53:07.542Z,97553.78
2022-11-25T05:55:37.604Z,97550.22
2022-11-25T05:58:11.018Z,97546.94
2022-11-25T06:00:39.467Z,97544.19
2022-11-25T06:03:11.787Z,97548.09
2022-11-25T06:05:41.198Z,97531.69
2022-11-25T06:08:11.943Z,97538.19
2022-11-25T06:10:40.833Z,97538.19
2022-11-25T06:13:10.041Z,97543.69
2022-11-25T06:15:42.306Z,97538.19
2022-11-25T06:18:12.621Z,97545.31
2022-11-25T06:20:41.288Z,97545.31
2022-11-25T06:23:11.636Z,97539.81
2022-11-25T06:25:41.450Z,97545.31
2022-11-25T06:28:13.608Z,97546.94
2022-11-25T06:30:46.351Z,97545.16
2022-11-25T06:33:24.760Z,97542.56
2022-11-25T06:35:53.267Z,97544.50
2022-11-25T06:38:23.044Z,97552.47
2022-11-25T06:40:54.009Z,97556.34
2022-11-25T06:43:22.609Z,97556.34
2022-11-25T06:45:51.121Z,97564.63
2022-11-25T06:48:19.733Z,97566.56
2022-11-25T06:50:57.002Z,97576.78
2022-11-25T06:53:27.105Z,97580.78
2022-11-25T06:56:07.030Z,97574.78
2022-11-25T06:58:36.763Z,97584.19
2022-11-25T07:01:07.868Z,97601.03
2022-11-25T07:03:36.466Z,97599.09
2022-11-25T07:06:05.679Z,97595.19
2022-11-25T07:08:35.560Z,97607.22
2022-11-25T07:11:05.812Z,97605.78
2022-11-25T07:13:34.675Z,97604.66
2022-11-25T07:16:03.860Z,97609.84
2022-11-25T07:18:33.286Z,97606.78
2022-11-25T07:21:06.950Z,97604.34
2022-11-25T07:23:37.808Z,97612.59
2022-11-25T07:26:08.976Z,97609.84
2022-11-25T07:28:38.120Z,97605.78
2022-11-25T07:31:27.516Z,97601.06
2022-11-25T07:33:58.487Z,97606.59
2022-11-25T07:36:27.885Z,97606.59
2022-11-25T07:38:59.094Z,97614.84
2022-11-25T07:41:28.882Z,97616.47
2022-11-25T07:44:00.159Z,97620.88
2022-11-25T07:46:30.346Z,97622.50
2022-11-25T07:49:01.432Z,97632.88
2022-11-25T07:51:32.244Z,97635.31
2022-11-25T07:54:03.751Z,97642.66
2022-11-25T07:56:34.304Z,97639.25
2022-11-25T07:59:03.203Z,97649.97
2022-11-25T08:01:31.679Z,97650.78
2022-11-25T08:04:00.241Z,97655.66
2022-11-25T08:06:30.346Z,97653.69
2022-11-25T08:09:00.061Z,97653.06
2022-11-25T08:11:33.065Z,97653.72
2022-11-25T08:14:01.616Z,97656.34
2022-11-25T08:16:32.051Z,97647.78
2022-11-25T08:19:02.684Z,97653.28
2022-11-25T08:21:31.256Z,97657.16
2022-11-25T08:23:59.787Z,97656.34
2022-11-25T08:26:31.202Z,97659.44
2022-11-25T08:29:00.845Z,97666.88
2022-11-25T08:31:31.240Z,97673.53
2022-11-25T08:34:00.614Z,97666.38
2022-11-25T08:36:32.002Z,97665.56
2022-11-25T08:39:03.259Z,97667.53
2022-11-25T08:41:37.028Z,97673.03
2022-11-25T08:44:08.371Z,97679.69
2022-11-25T08:46:39.540Z,97679.69
2022-11-25T08:49:10.492Z,97684.38
2022-11-25T08:51:39.962Z,97691.53
2022-11-25T08:54:09.807Z,97685.69
2022-11-25T08:56:39.705Z,97690.06
2022-11-25T08:59:08.142Z,97688.63
2022-11-25T09:01:36.757Z,97689.44
2022-11-25T09:04:05.399Z,97692.69
2022-11-25T09:06:33.888Z,97686.38
2022-11-25T09:09:02.419Z,97685.25
2022-11-25T09:11:30.900Z,97688.00
2022-11-25T09:14:00.803Z,97691.25
2022-11-25T09:16:29.440Z,97693.69
2022-11-25T09:18:59.917Z,97692.06
2022-11-25T09:21:28.363Z,97691.25
2022-11-25T09:23:56.867Z,97683.28
2022-11-25T09:26:27.610Z,97685.25
2022-11-25T09:28:56.635Z,97687.19
2022-11-25T09:31:26.560Z,97696.59
2022-11-25T09:33:55.217Z,97695.28
2022-11-25T09:36:24.850Z,97695.78
2022-11-25T09:38:53.467Z,97694.97
2022-11-25T09:42:01.387Z,97698.84
2022-11-25T09:44:59.589Z,97709.88
2022-11-25T09:47:42.291Z,97707.94
2022-11-25T09:50:21.024Z,97704.34
2022-11-25T09:53:00.018Z,97715.38
2022-11-25T09:55:34.261Z,97715.38
2022-11-25T09:58:15.324Z,97715.38
2022-11-25T10:00:46.185Z,97717.00
2022-11-25T10:03:26.376Z,97717.00
2022-11-25T10:06:04.050Z,97713.44
2022-11-25T10:08:37.446Z,97716.19
2022-11-25T10:11:17.795Z,97716.19
2022-11-25T10:13:53.562Z,97721.41
2022-11-25T10:16:33.381Z,97711.50
2022-11-25T10:19:12.012Z,97721.41
2022-11-25T10:21:40.912Z,97721.41
2022-11-25T10:24:15.492Z,97718.66
2022-11-25T10:26:46.267Z,97718.66
2022-11-25T10:29:27.390Z,97711.50
2022-11-25T10:32:03.993Z,97717.81
2022-11-25T10:34:37.979Z,97709.88
2022-11-25T10:37:12.119Z,97711.00
2022-11-25T10:39:40.716Z,97711.31
2022-11-25T10:42:17.217Z,97707.75
2022-11-25T10:44:45.758Z,97713.25
2022-11-25T10:47:27.203Z,97715.53
2022-11-25T10:50:14.726Z,97704.50
2022-11-25T10:52:49.816Z,97701.22
2022-11-25T10:55:20.522Z,97707.88
2022-11-25T10:57:49.020Z,97706.25
2022-11-25T11:00:30.901Z,97696.34
2022-11-25T11:03:02.775Z,97697.47
2022-11-25T11:05:32.952Z,97707.06
2022-11-25T11:08:10.866Z,97710.94
2022-11-25T11:10:39.585Z,97706.56
2022-11-25T11:13:22.201Z,97716.78
2022-11-25T11:15:52.866Z,97708.50
2022-11-25T11:18:28.328Z,97719.53
2022-11-25T11:21:00.627Z,97713.22
2022-11-25T11:23:30.390Z,97716.31
2022-11-25T11:26:02.130Z,97721.81
2022-11-25T11:28:39.655Z,97721.81
2022-11-25T11:31:18.071Z,97727.00
2022-11-25T11:33:53.955Z,97727.50
2022-11-25T11:36:43.430Z,97726.06
2022-11-25T11:39:29.559Z,97726.88
2022-11-25T11:42:08.911Z,97724.09
2022-11-25T11:44:52.485Z,97727.69
2022-11-25T11:47:27.860Z,97730.94
2022-11-25T11:50:17.935Z,97734.19
2022-11-25T11:52:55.691Z,97733.56
2022-11-25T11:56:11.902Z,97736.81
2022-11-25T11:58:50.609Z,97736.19
2022-11-25T12:01:33.925Z,97739.44
2022-11-25T12:04:14.929Z,97741.06
2022-11-25T12:06:50.774Z,97742.69
2022-11-25T12:09:24.370Z,97744.97
2022-11-25T12:11:58.701Z,97741.69
2022-11-25T12:14:37.261Z,97745.41
2022-11-25T12:17:14.010Z,97757.88
2022-11-25T12:19:51.161Z,97756.06
2022-11-25T12:22:24.518Z,97750.84
2022-11-25T12:25:02.506Z,97753.75
2022-11-25T12:27:36.033Z,97759.41
2022-11-25T12:30:07.131Z,97766.38
2022-11-25T12:32:52.687Z,97766.19
2022-11-25T12:35:28.947Z,97773.44
2022-11-25T12:38:06.271Z,97766.63
2022-11-25T12:40:42.428Z,97776.00
2022-11-25T12:43:25.077Z,97777.94
2022-11-25T12:46:04.430Z,97784.59
2022-11-25T12:48:33.459Z,97789.28
2022-11-25T12:51:11.437Z,97786.84
2022-11-25T12:53:48.201Z,97794.28
2022-11-25T12:56:23.364Z,97796.22
2022-11-25T12:59:00.778Z,97800.13
2022-11-25T13:01:52.892Z,97793.78
2022-11-25T13:08:01.831Z,97802.69
2022-11-25T13:10:43.441Z,97798.59
2022-11-25T13:10:55.399Z,97797.97
2022-11-25T13:13:33.970Z,97799.72
2022-11-25T13:16:06.651Z,97810.75
2022-11-25T13:18:40.943Z,97809.94
2022-11-25T13:21:11.460Z,97813.00
2022-11-25T13:23:49.378Z,97816.06
2022-11-25T13:26:46.548Z,97806.16
2022-11-25T13:30:04.053Z,97809.22
2022-11-25T13:32:41.142Z,97819.44
2022-11-25T13:35:54.087Z,97826.06
2022-11-25T13:38:59.922Z,97835.16
2022-11-25T13:41:37.302Z,97838.72
2022-11-25T13:44:12.886Z,97844.53
2022-11-25T13:46:44.639Z,97846.38
2022-11-25T13:49:31.200Z,97848.19
2022-11-25T13:52:02.464Z,97850.34
2022-11-25T13:54:40.597Z,97851.22
2022-11-25T13:57:20.921Z,97857.63
2022-11-25T13:59:52.666Z,97864.16
2022-11-25T14:02:49.562Z,97874.22
2022-11-25T14:06:02.949Z,97874.94
2022-11-25T14:08:40.160Z,97877.56
2022-11-25T14:11:42.520Z,97880.81
2022-11-25T14:14:28.678Z,97887.34
2022-11-25T14:17:16.242Z,97893.69
2022-11-25T14:20:18.282Z,97904.28
2022-11-25T14:23:10.127Z,97891.00
2022-11-25T14:25:49.297Z,97899.78
2022-11-25T14:28:28.088Z,97908.56
2022-11-25T14:31:01.298Z,97900.28
2022-11-25T14:33:35.289Z,97895.25
2022-11-25T14:36:06.485Z,97905.47
2022-11-25T14:38:41.507Z,97907.13
2022-11-25T14:41:18.703Z,97915.06
2022-11-25T14:43:52.464Z,97904.84
2022-11-25T14:46:23.025Z,97908.75
2022-11-25T14:48:55.140Z,97908.56
2022-11-25T14:51:25.253Z,97923.47
2022-11-25T14:53:54.392Z,97920.22
2022-11-25T14:56:27.960Z,97921.84
2022-11-25T14:58:58.804Z,97928.97
2022-11-25T15:01:29.125Z,97931.44
2022-11-25T15:04:06.457Z,97936.63
2022-11-25T15:06:37.040Z,97936.84
2022-11-25T15:09:19.525Z,97942.03
2022-11-25T15:11:52.143Z,97953.56
2022-11-25T15:14:26.279Z,97960.44
2022-11-25T15:16:55.292Z,97957.97
2022-11-25T15:19:32.147Z,97954.38
2022-11-25T15:24:56.344Z,97969.63
2022-11-25T15:27:27.833Z,97972.50
2022-11-25T15:29:58.441Z,97979.13
2022-11-25T15:32:29.131Z,97977.81
2022-11-25T15:34:59.766Z,97982.50
2022-11-25T15:37:29.702Z,97978.13
2022-11-25T15:40:33.715Z,97993.53
2022-11-25T15:43:06.492Z,97992.72
2022-11-25T15:45:44.642Z,98001.81
2022-11-25T15:48:18.330Z,98006.53
2022-11-25T15:50:46.893Z,98001.81
2022-11-25T15:53:28.829Z,98004.59
2022-11-25T15:56:02.432Z,98004.59
2022-11-25T15:58:32.480Z,98008.97
2022-11-25T16:01:05.942Z,98005.09
2022-11-25T16:03:35.738Z,97994.38
2022-11-25T16:06:21.178Z,98001.50
2022-11-25T16:08:54.532Z,98017.25
2022-11-25T16:11:25.465Z,98015.09
2022-11-25T16:13:56.207Z,98018.16
2022-11-25T16:16:27.245Z,98013.78
2022-11-25T16:19:11.533Z,98025.63
2022-11-25T16:21:44.475Z,98025.00
2022-11-25T16:24:24.800Z,98032.16
2022-11-25T16:26:56.378Z,98029.91
2022-11-25T16:29:31.171Z,98026.53
2022-11-25T16:32:00.264Z,98034.81
2022-11-25T16:34:29.656Z,98038.88
2022-11-25T16:36:58.156Z,98037.47
2022-11-25T16:39:26.637Z,98042.47
2022-11-25T16:42:02.500Z,98048.50
2022-11-25T16:44:34.345Z,98055.66
2022-11-25T16:47:03.067Z,98059.53
2022-11-25T16:49:32.913Z,98060.84
2022-11-25T16:52:01.625Z,98065.56
2022-11-25T16:54:31.240Z,98062.78
2022-11-25T16:56:59.970Z,98069.97
2022-11-25T16:59:33.844Z,98069.13
2022-11-25T17:02:02.922Z,98081.00
2022-11-25T17:04:31.576Z,98077.13
2022-11-25T17:09:48.893Z,98085.91
2022-11-25T17:12:20.801Z,98076.00
2022-11-25T17:14:50.980Z,98080.41
2022-11-25T17:17:24.654Z,98084.28
2022-11-25T17:19:53.637Z,98081.53
2022-11-25T17:22:24.388Z,98093.69
2022-11-25T17:24:53.752Z,98089.28
2022-11-25T17:27:25.094Z,98092.88
2022-11-25T17:29:56.863Z,98100.84
2022-11-25T17:32:25.879Z,98102.47
2022-11-25T17:34:54.590Z,98103.28
2022-11-25T17:37:24.799Z,98108.81
2022-11-25T17:39:53.946Z,98111.56
2022-11-25T17:42:27.979Z,98120.66
2022-11-25T17:44:58.068Z,98116.78
2022-11-25T17:47:26.589Z,98115.13
2022-11-25T17:49:55.183Z,98126.16
2022-11-25T17:52:23.739Z,98134.44
2022-11-25T17:54:52.177Z,98133.63
2022-11-25T17:57:23.299Z,98137.22
2022-11-25T17:59:51.769Z,98146.59
2022-11-25T18:02:23.399Z,98147.44
2022-11-25T18:04:52.070Z,98156.53
2022-11-25T18:07:20.578Z,98162.56
2022-11-25T18:09:49.203Z,98164.78
2022-11-25T18:12:24.519Z,98164.50
2022-11-25T18:14:53.123Z,98174.72
2022-11-25T18:17:22.984Z,98171.94
2022-11-25T18:19:54.961Z,98173.59
2022-11-25T18:22:24.760Z,98176.34
2022-11-25T18:24:54.061Z,98183.81
2022-11-25T18:27:26.789Z,98185.75
2022-11-25T18:29:56.323Z,98187.47
2022-11-25T18:32:26.557Z,98189.69
2022-11-25T18:34:55.067Z,98181.53
2022-11-25T18:37:23.755Z,98194.78
2022-11-25T18:39:52.321Z,98203.69
2022-11-25T18:42:25.495Z,98196.03
2022-11-25T18:44:55.821Z,98204.28
2022-11-25T18:47:27.257Z,98212.56
2022-11-25T18:49:56.609Z,98219.72
2022-11-25T18:52:25.280Z,98223.81
2022-11-25T18:54:53.850Z,98223.81
2022-11-25T18:57:22.438Z,98218.59
2022-11-25T19:00:10.669Z,98225.25
2022-11-25T19:02:40.910Z,98225.25
2022-11-25T19:05:31.020Z,98230.16
2022-11-25T19:07:59.584Z,98237.00
2022-11-25T19:10:30.540Z,98239.66
2022-11-25T19:13:02.720Z,98241.03
2022-11-25T19:15:31.281Z,98255.34
2022-11-25T19:18:04.542Z,98260.53
2022-11-25T19:20:33.360Z,98257.78
2022-11-25T19:23:12.767Z,98259.72
2022-11-25T19:25:41.287Z,98279.03
2022-11-25T19:28:14.675Z,98273.81
2022-11-25T19:30:44.447Z,98271.38
2022-11-25T19:33:24.087Z,98276.59
2022-11-25T19:35:53.200Z,98275.75
2022-11-25T19:38:26.089Z,98287.31
2022-11-25T19:40:55.705Z,98293.34
2022-11-25T19:43:26.932Z,98295.28
2022-11-25T19:45:56.065Z,98307.66
2022-11-25T19:48:29.332Z,98304.91
2022-11-25T19:51:02.142Z,98309.81
2022-11-25T19:53:34.192Z,98312.56
2022-11-25T19:56:04.688Z,98309.00
2022-11-25T19:58:33.506Z,98318.91
2022-11-25T20:01:04.408Z,98323.59
2022-11-25T20:03:34.336Z,98336.28
2022-11-25T20:06:02.817Z,98332.41
2022-11-25T20:08:31.326Z,98336.28
2022-11-25T20:10:59.860Z,98354.47
2022-11-25T20:13:28.309Z,98344.88
2022-11-25T20:15:58.689Z,98348.97
2022-11-25T20:18:28.212Z,98362.25
2022-11-25T20:21:02.773Z,98367.75
2022-11-25T20:23:40.088Z,98368.59
2022-11-25T20:26:16.226Z,98366.41
2022-11-25T20:28:44.805Z,98366.13
2022-11-25T20:31:14.665Z,98375.22
2022-11-25T20:33:43.287Z,98372.75
2022-11-25T20:36:16.476Z,98378.78
2022-11-25T20:38:48.364Z,98382.97
2022-11-25T20:41:19.764Z,98385.44
2022-11-25T20:43:52.126Z,98392.91
2022-11-25T20:46:23.562Z,98401.47
2022-11-25T20:48:55.638Z,98398.13
2022-11-25T20:51:25.863Z,98410.50
2022-11-25T20:53:57.586Z,98415.19
2022-11-25T20:56:27.744Z,98409.66
2022-11-25T20:58:56.795Z,98419.06
2022-11-25T21:01:25.587Z,98419.88
2022-11-25T21:03:54.214Z,98424.59
2022-11-25T21:06:27.502Z,98428.16
2022-11-25T21:08:58.398Z,98428.47
2022-11-25T21:11:28.126Z,98434.81
2022-11-25T21:13:56.676Z,98434.50
2022-11-25T21:16:25.746Z,98440.03
2022-11-25T21:18:54.400Z,98441.16
2022-11-25T21:21:29.565Z,98444.41
2022-11-25T21:23:58.743Z,98451.59
2022-11-25T21:26:27.842Z,98454.34
2022-11-25T21:28:56.537Z,98460.16
2022-11-25T21:31:26.803Z,98456.88
2022-11-25T21:33:58.835Z,98453.59
2022-11-25T21:36:30.418Z,98456.66
2022-11-25T21:39:04.418Z,98449.50
2022-11-25T21:41:33.193Z,98453.38
2022-11-25T21:44:02.198Z,98461.13
2022-11-25T21:46:30.666Z,98459.50
2022-11-25T21:48:59.180Z,98462.56
2022-11-25T21:51:29.033Z,98457.84
2022-11-25T21:53:57.580Z,98467.53
2022-11-25T21:56:28.164Z,98469.47
2022-11-25T21:58:57.617Z,98470.59
2022-11-25T22:01:26.333Z,98471.69
2022-11-25T22:03:55.398Z,98472.81
2022-11-25T22:06:26.369Z,98475.56
2022-11-25T22:08:56.864Z,98483.84
2022-11-25T22:11:30.410Z,98484.16
2022-11-25T22:14:01.307Z,98479.44
2022-11-25T22:16:32.181Z,98483.34
2022-11-25T22:19:01.251Z,98480.56
2022-11-25T22:21:29.775Z,98479.44
2022-11-25T22:23:59.611Z,98486.09
2022-11-25T22:26:30.614Z,98482.81
2022-11-25T22:29:00.892Z,98488.84
2022-11-25T22:31:30.069Z,98507.03
2022-11-25T22:33:58.651Z,98497.13
2022-11-25T22:36:34.046Z,98502.66
2022-11-25T22:39:14.034Z,98513.69
2022-11-25T22:41:44.271Z,98514.78
2022-11-25T22:44:19.695Z,98520.31
2022-11-25T22:46:49.050Z,98520.31
2022-11-25T22:49:31.270Z,98519.19
2022-11-25T22:51:59.955Z,98513.16
2022-11-25T22:54:29.780Z,98519.50
2022-11-25T22:56:58.379Z,98519.78
2022-11-25T22:59:26.782Z,98519.78
2022-11-25T23:01:55.330Z,98523.66
2022-11-25T23:04:23.856Z,98514.88
2022-11-25T23:06:53.710Z,98527.53
2022-11-25T23:09:22.862Z,98524.25
2022-11-25T23:11:52.705Z,98527.03
2022-11-25T23:14:21.157Z,98530.38
2022-11-25T23:16:49.679Z,98533.94
2022-11-25T23:19:18.343Z,98526.56
2022-11-25T23:21:46.808Z,98524.91
2022-11-25T23:24:17.911Z,98524.91
2022-11-25T23:26:46.434Z,98527.16
2022-11-25T23:29:16.286Z,98532.16
2022-11-25T23:31:44.811Z,98531.03
2022-11-25T23:34:14.263Z,98534.91
2022-11-25T23:36:45.746Z,98538.78
2022-11-25T23:39:20.999Z,98541.00
2022-11-25T23:41:49.984Z,98542.66
2022-11-25T23:44:24.340Z,98541.84
2022-11-25T23:46:54.026Z,98546.53
2022-11-25T23:49:26.426Z,98548.16
2022-11-25T23:51:57.398Z,98550.94
2022-11-25T23:54:40.280Z,98550.41
2022-11-25T23:57:15.054Z,98548.47
2022-11-25T23:59:45.594Z,98549.56
